Terminal Aerodrome Forecast
Issued by NWS

Home | Current Version | Previous Version | Text Only | Print | Product List | Glossary On
Versions: 1 2 3 4 5 6 7 8 9 10 11 12 13 14 15
000
FTUS45 KGJT 271749
TAFVEL
TAF
KVEL 271749Z 2718/2818 VRB04KT P6SM VCSH SCT100
     FM272000 35007KT P6SM VCTS SCT090CB BKN120
      TEMPO 2720/2724 VRB15G25KT -TSRA SCT050 BKN070CB
     FM280200 33006KT P6SM BKN140
     FM281300 VRB03KT P6SM FEW250=

USA.gov is the U.S. government's official web portal to all federal, state and local government web resources and services.